PWSweather.com
Personal Weather Stations
Station Observations
DEKREUPEL
Wsv De Kreupel, AndijkNL 1619 JV

Wsv De KreupelAndijkNL 1619 JV

Lat: 52.7417364, Lon: 5.1809356

Elevation: 33

Station Type: Rainwise MKiii LR

High Low Average
Temperature 56.0°F13.3°C 48.2°F9.0°C 53.1°F11.7°C
Dew Point 83.4°F28.6°C 74.6°F23.7°C 80.2°F26.8°C
Winds 11.7 mph 18.8 kmh Calm Calm 4.0 mph S6.4 kmh S
Wind Gusts 21.7 mph34.9 kmh -- 6.0 mph9.7 kmh
Humidity - - -
Pressure 30.24 in1024.0 mb 29.94 in1013.9 mb -
Precipitation 0.00 in0.0 mm - -
Hour Temp Dew Point Humidity Winds Wind Gusts Pressure Precip Precip Rate Daily Precip Total
12:04 AM 54.4°F12.4°C 81.6°F27.6°C - Calm Calm -- 29.94 in1013.9 mb 0.00 in0.0 mm 0.00 in0.0 mm 0.00 in0.0 mm
12:09 AM 54.4°F12.4°C 81.6°F27.6°C - Calm Calm -- 29.94 in1013.9 mb 0.00 in0.0 mm 0.00 in0.0 mm 0.00 in0.0 mm
12:14 AM 54.3°F12.4°C 81.5°F27.5°C - Calm Calm -- 29.95 in1014.2 mb 0.00 in0.0 mm 0.00 in0.0 mm 0.00 in0.0 mm
12:19 AM 54.2°F12.3°C 81.4°F27.4°C - Calm Calm -- 29.95 in1014.2 mb 0.00 in0.0 mm 0.00 in0.0 mm 0.00 in0.0 mm
12:24 AM 54.2°F12.3°C 81.4°F27.4°C - Calm Calm -- 29.95 in1014.2 mb 0.00 in0.0 mm 0.00 in0.0 mm 0.00 in0.0 mm
12:29 AM 54.2°F12.3°C 81.4°F27.4°C - Calm Calm -- 29.95 in1014.2 mb 0.00 in0.0 mm 0.00 in0.0 mm 0.00 in0.0 mm
12:34 AM 54.2°F12.3°C 81.4°F27.4°C - Calm Calm -- 29.95 in1014.2 mb 0.00 in0.0 mm 0.00 in0.0 mm 0.00 in0.0 mm
12:39 AM 54.2°F12.3°C 81.3°F27.4°C - Calm Calm -- 29.95 in1014.2 mb 0.00 in0.0 mm 0.00 in0.0 mm 0.00 in0.0 mm
12:44 AM 54.4°F12.4°C 81.6°F27.6°C - Calm Calm -- 29.96 in1014.6 mb 0.00 in0.0 mm 0.00 in0.0 mm 0.00 in0.0 mm
12:49 AM 54.4°F12.4°C 81.6°F27.6°C - Calm Calm -- 29.96 in1014.6 mb 0.00 in0.0 mm 0.00 in0.0 mm 0.00 in0.0 mm
12:54 AM 54.4°F12.4°C 81.6°F27.6°C - Calm Calm -- 29.96 in1014.6 mb 0.00 in0.0 mm 0.00 in0.0 mm 0.00 in0.0 mm
12:59 AM 54.3°F12.4°C 81.4°F27.4°C - Calm Calm -- 29.96 in1014.6 mb 0.00 in0.0 mm 0.00 in0.0 mm 0.00 in0.0 mm
01:04 AM 54.3°F12.4°C 81.4°F27.4°C - 6.5 mph SSW10.5 kmh SSW 9.8 mph15.8 kmh 29.96 in1014.6 mb 0.00 in0.0 mm 0.00 in0.0 mm 0.00 in0.0 mm
01:09 AM 54.4°F12.4°C 81.6°F27.6°C - 8.0 mph SSW12.9 kmh SSW 13.9 mph22.4 kmh 29.96 in1014.6 mb 0.00 in0.0 mm 0.00 in0.0 mm 0.00 in0.0 mm
01:14 AM 54.4°F12.4°C 81.6°F27.6°C - 9.8 mph SSW15.8 kmh SSW 18.4 mph29.6 kmh 29.96 in1014.6 mb 0.00 in0.0 mm 0.00 in0.0 mm 0.00 in0.0 mm
01:19 AM 54.4°F12.4°C 81.6°F27.6°C - 9.4 mph SSW15.1 kmh SSW 17.3 mph27.8 kmh 29.96 in1014.6 mb 0.00 in0.0 mm 0.00 in0.0 mm 0.00 in0.0 mm
01:24 AM 54.4°F12.4°C 81.5°F27.5°C - 8.4 mph SSW13.5 kmh SSW 13.0 mph20.9 kmh 29.97 in1014.9 mb 0.00 in0.0 mm 0.00 in0.0 mm 0.00 in0.0 mm
01:29 AM 54.4°F12.4°C 81.6°F27.6°C - 9.2 mph SSW14.8 kmh SSW 13.8 mph22.2 kmh 29.97 in1014.9 mb 0.00 in0.0 mm 0.00 in0.0 mm 0.00 in0.0 mm
01:34 AM 54.4°F12.4°C 81.6°F27.6°C - 8.2 mph SSW13.2 kmh SSW 12.4 mph20.0 kmh 29.97 in1014.9 mb 0.00 in0.0 mm 0.00 in0.0 mm 0.00 in0.0 mm
01:39 AM 54.4°F12.4°C 81.6°F27.6°C - 9.2 mph SSW14.8 kmh SSW 13.6 mph21.9 kmh 29.97 in1014.9 mb 0.00 in0.0 mm 0.00 in0.0 mm 0.00 in0.0 mm
01:44 AM 54.5°F12.5°C 81.7°F27.6°C - 9.0 mph SSW14.5 kmh SSW 14.5 mph23.3 kmh 29.97 in1014.9 mb 0.00 in0.0 mm 0.00 in0.0 mm 0.00 in0.0 mm
01:49 AM 54.5°F12.5°C 81.6°F27.6°C - 8.2 mph SSW13.2 kmh SSW 11.9 mph19.2 kmh 29.97 in1014.9 mb 0.00 in0.0 mm 0.00 in0.0 mm 0.00 in0.0 mm
01:54 AM 54.4°F12.4°C 81.6°F27.6°C - 9.2 mph SSW14.8 kmh SSW 12.4 mph20.0 kmh 29.98 in1015.2 mb 0.00 in0.0 mm 0.00 in0.0 mm 0.00 in0.0 mm
01:59 AM 54.4°F12.4°C 81.6°F27.6°C - 9.4 mph SW15.1 kmh SW 13.6 mph21.9 kmh 29.98 in1015.2 mb 0.00 in0.0 mm 0.00 in0.0 mm 0.00 in0.0 mm
02:04 AM 54.5°F12.5°C 81.7°F27.6°C - 10.1 mph SSW16.3 kmh SSW 14.6 mph23.5 kmh 29.98 in1015.2 mb 0.00 in0.0 mm 0.00 in0.0 mm 0.00 in0.0 mm
02:09 AM 54.5°F12.5°C 81.6°F27.6°C - 10.8 mph SSW17.4 kmh SSW 14.1 mph22.7 kmh 29.98 in1015.2 mb 0.00 in0.0 mm 0.00 in0.0 mm 0.00 in0.0 mm
02:14 AM 54.5°F12.5°C 81.6°F27.6°C - 11.1 mph SSW17.9 kmh SSW 16.6 mph26.7 kmh 29.98 in1015.2 mb 0.00 in0.0 mm 0.00 in0.0 mm 0.00 in0.0 mm
02:19 AM 54.4°F12.4°C 81.6°F27.6°C - 9.2 mph SSW14.8 kmh SSW 14.3 mph23.0 kmh 29.99 in1015.6 mb 0.00 in0.0 mm 0.00 in0.0 mm 0.00 in0.0 mm
02:24 AM 54.4°F12.4°C 81.6°F27.6°C - 10.5 mph SSW16.9 kmh SSW 15.8 mph25.4 kmh 29.99 in1015.6 mb 0.00 in0.0 mm 0.00 in0.0 mm 0.00 in0.0 mm
02:29 AM 54.4°F12.4°C 81.6°F27.6°C - 9.1 mph SSW14.6 kmh SSW 12.4 mph20.0 kmh 29.99 in1015.6 mb 0.00 in0.0 mm 0.00 in0.0 mm 0.00 in0.0 mm
02:34 AM 54.3°F12.4°C 81.5°F27.5°C - 11.0 mph SSW17.7 kmh SSW 14.3 mph23.0 kmh 29.99 in1015.6 mb 0.00 in0.0 mm 0.00 in0.0 mm 0.00 in0.0 mm
02:39 AM 54.2°F12.3°C 81.3°F27.4°C - 10.2 mph SSW16.4 kmh SSW 14.6 mph23.5 kmh 29.99 in1015.6 mb 0.00 in0.0 mm 0.00 in0.0 mm 0.00 in0.0 mm
02:44 AM 54.2°F12.3°C 81.4°F27.4°C - 10.2 mph SSW16.4 kmh SSW 16.2 mph26.1 kmh 30.00 in1015.9 mb 0.00 in0.0 mm 0.00 in0.0 mm 0.00 in0.0 mm
02:49 AM 54.2°F12.3°C 81.4°F27.4°C - 10.5 mph SSW16.9 kmh SSW 14.8 mph23.8 kmh 30.00 in1015.9 mb 0.00 in0.0 mm 0.00 in0.0 mm 0.00 in0.0 mm
02:54 AM 54.2°F12.3°C 81.4°F27.4°C - 10.3 mph SSW16.6 kmh SSW 14.4 mph23.2 kmh 30.00 in1015.9 mb 0.00 in0.0 mm 0.00 in0.0 mm 0.00 in0.0 mm
02:59 AM 54.2°F12.3°C 81.4°F27.4°C - 10.3 mph SSW16.6 kmh SSW 14.6 mph23.5 kmh 30.00 in1015.9 mb 0.00 in0.0 mm 0.00 in0.0 mm 0.00 in0.0 mm
03:04 AM 54.1°F12.3°C 81.2°F27.3°C - 8.9 mph SW14.3 kmh SW 15.2 mph24.5 kmh 30.00 in1015.9 mb 0.00 in0.0 mm 0.00 in0.0 mm 0.00 in0.0 mm
03:09 AM 54.0°F12.2°C 81.2°F27.3°C - Calm Calm -- 30.00 in1015.9 mb 0.00 in0.0 mm 0.00 in0.0 mm 0.00 in0.0 mm
03:14 AM 54.0°F12.2°C 81.2°F27.3°C - Calm Calm -- 30.00 in1015.9 mb 0.00 in0.0 mm 0.00 in0.0 mm 0.00 in0.0 mm
03:19 AM 53.9°F12.2°C 81.1°F27.3°C - Calm Calm -- 30.00 in1015.9 mb 0.00 in0.0 mm 0.00 in0.0 mm 0.00 in0.0 mm
03:24 AM 53.8°F12.1°C 80.8°F27.1°C - Calm Calm -- 30.00 in1015.9 mb 0.00 in0.0 mm 0.00 in0.0 mm 0.00 in0.0 mm
03:29 AM 53.9°F12.2°C 81.1°F27.3°C - Calm Calm -- 30.01 in1016.3 mb 0.00 in0.0 mm 0.00 in0.0 mm 0.00 in0.0 mm
03:34 AM 53.9°F12.2°C 81.1°F27.3°C - Calm Calm -- 30.01 in1016.3 mb 0.00 in0.0 mm 0.00 in0.0 mm 0.00 in0.0 mm
03:39 AM 53.9°F12.2°C 81.1°F27.3°C - Calm Calm -- 30.01 in1016.3 mb 0.00 in0.0 mm 0.00 in0.0 mm 0.00 in0.0 mm
03:44 AM 54.0°F12.2°C 81.2°F27.3°C - Calm Calm -- 30.01 in1016.3 mb 0.00 in0.0 mm 0.00 in0.0 mm 0.00 in0.0 mm
03:49 AM 54.1°F12.3°C 81.3°F27.4°C - Calm Calm -- 30.01 in1016.3 mb 0.00 in0.0 mm 0.00 in0.0 mm 0.00 in0.0 mm
03:54 AM 54.2°F12.3°C 81.3°F27.4°C - Calm Calm -- 30.01 in1016.3 mb 0.00 in0.0 mm 0.00 in0.0 mm 0.00 in0.0 mm
03:59 AM 54.4°F12.4°C 81.5°F27.5°C - Calm Calm -- 30.01 in1016.3 mb 0.00 in0.0 mm 0.00 in0.0 mm 0.00 in0.0 mm
04:04 AM 54.6°F12.6°C 81.9°F27.7°C - Calm Calm -- 30.01 in1016.3 mb 0.00 in0.0 mm 0.00 in0.0 mm 0.00 in0.0 mm
04:09 AM 54.7°F12.6°C 82.0°F27.8°C - Calm Calm -- 30.02 in1016.6 mb 0.00 in0.0 mm 0.00 in0.0 mm 0.00 in0.0 mm
04:14 AM 54.7°F12.6°C 82.0°F27.8°C - Calm Calm -- 30.02 in1016.6 mb 0.00 in0.0 mm 0.00 in0.0 mm 0.00 in0.0 mm
04:19 AM 54.7°F12.6°C 81.9°F27.7°C - Calm Calm -- 30.02 in1016.6 mb 0.00 in0.0 mm 0.00 in0.0 mm 0.00 in0.0 mm
04:24 AM 54.6°F12.6°C 81.9°F27.7°C - Calm Calm -- 30.02 in1016.6 mb 0.00 in0.0 mm 0.00 in0.0 mm 0.00 in0.0 mm
04:29 AM 54.5°F12.5°C 81.7°F27.6°C - Calm Calm -- 30.02 in1016.6 mb 0.00 in0.0 mm 0.00 in0.0 mm 0.00 in0.0 mm
04:34 AM 54.5°F12.5°C 81.7°F27.6°C - Calm Calm -- 30.02 in1016.6 mb 0.00 in0.0 mm 0.00 in0.0 mm 0.00 in0.0 mm
04:39 AM 54.4°F12.4°C 81.6°F27.6°C - Calm Calm -- 30.03 in1016.9 mb 0.00 in0.0 mm 0.00 in0.0 mm 0.00 in0.0 mm
04:44 AM 54.3°F12.4°C 81.5°F27.5°C - Calm Calm -- 30.03 in1016.9 mb 0.00 in0.0 mm 0.00 in0.0 mm 0.00 in0.0 mm
04:49 AM 54.4°F12.4°C 81.6°F27.6°C - Calm Calm -- 30.04 in1017.3 mb 0.00 in0.0 mm 0.00 in0.0 mm 0.00 in0.0 mm
04:54 AM 54.2°F12.3°C 81.4°F27.4°C - Calm Calm -- 30.04 in1017.3 mb 0.00 in0.0 mm 0.00 in0.0 mm 0.00 in0.0 mm
04:59 AM 54.1°F12.3°C 81.3°F27.4°C - Calm Calm -- 30.04 in1017.3 mb 0.00 in0.0 mm 0.00 in0.0 mm 0.00 in0.0 mm
05:04 AM 54.0°F12.2°C 81.2°F27.3°C - Calm Calm -- 30.05 in1017.6 mb 0.00 in0.0 mm 0.00 in0.0 mm 0.00 in0.0 mm
05:09 AM 53.9°F12.2°C 81.1°F27.3°C - Calm Calm -- 30.05 in1017.6 mb 0.00 in0.0 mm 0.00 in0.0 mm 0.00 in0.0 mm
05:14 AM 53.9°F12.2°C 81.1°F27.3°C - Calm Calm -- 30.05 in1017.6 mb 0.00 in0.0 mm 0.00 in0.0 mm 0.00 in0.0 mm
05:19 AM 53.9°F12.2°C 81.1°F27.3°C - Calm Calm -- 30.05 in1017.6 mb 0.00 in0.0 mm 0.00 in0.0 mm 0.00 in0.0 mm
05:24 AM 53.9°F12.2°C 81.1°F27.3°C - Calm Calm -- 30.06 in1017.9 mb 0.00 in0.0 mm 0.00 in0.0 mm 0.00 in0.0 mm
05:29 AM 53.9°F12.2°C 81.1°F27.3°C - Calm Calm -- 30.07 in1018.3 mb 0.00 in0.0 mm 0.00 in0.0 mm 0.00 in0.0 mm
05:34 AM 54.0°F12.2°C 81.2°F27.3°C - Calm Calm -- 30.07 in1018.3 mb 0.00 in0.0 mm 0.00 in0.0 mm 0.00 in0.0 mm
05:39 AM 54.1°F12.3°C 81.3°F27.4°C - Calm Calm -- 30.07 in1018.3 mb 0.00 in0.0 mm 0.00 in0.0 mm 0.00 in0.0 mm
05:44 AM 54.0°F12.2°C 81.2°F27.3°C - Calm Calm -- 30.07 in1018.3 mb 0.00 in0.0 mm 0.00 in0.0 mm 0.00 in0.0 mm
05:49 AM 54.0°F12.2°C 81.2°F27.3°C - Calm Calm -- 30.07 in1018.3 mb 0.00 in0.0 mm 0.00 in0.0 mm 0.00 in0.0 mm
05:54 AM 53.9°F12.2°C 81.1°F27.3°C - Calm Calm -- 30.07 in1018.3 mb 0.00 in0.0 mm 0.00 in0.0 mm 0.00 in0.0 mm
05:59 AM 53.8°F12.1°C 80.8°F27.1°C - Calm Calm -- 30.07 in1018.3 mb 0.00 in0.0 mm 0.00 in0.0 mm 0.00 in0.0 mm
06:04 AM 54.0°F12.2°C 81.1°F27.3°C - Calm Calm -- 30.08 in1018.6 mb 0.00 in0.0 mm 0.00 in0.0 mm 0.00 in0.0 mm
06:09 AM 54.1°F12.3°C 81.3°F27.4°C - Calm Calm -- 30.08 in1018.6 mb 0.00 in0.0 mm 0.00 in0.0 mm 0.00 in0.0 mm
06:14 AM 54.2°F12.3°C 81.4°F27.4°C - Calm Calm -- 30.08 in1018.6 mb 0.00 in0.0 mm 0.00 in0.0 mm 0.00 in0.0 mm
06:19 AM 54.4°F12.4°C 81.6°F27.6°C - Calm Calm -- 30.08 in1018.6 mb 0.00 in0.0 mm 0.00 in0.0 mm 0.00 in0.0 mm
06:24 AM 54.5°F12.5°C 81.7°F27.6°C - Calm Calm -- 30.09 in1019.0 mb 0.00 in0.0 mm 0.00 in0.0 mm 0.00 in0.0 mm
06:29 AM 54.6°F12.6°C 81.9°F27.7°C - Calm Calm -- 30.09 in1019.0 mb 0.00 in0.0 mm 0.00 in0.0 mm 0.00 in0.0 mm
06:34 AM 54.7°F12.6°C 82.0°F27.8°C - Calm Calm -- 30.09 in1019.0 mb 0.00 in0.0 mm 0.00 in0.0 mm 0.00 in0.0 mm
06:39 AM 54.7°F12.6°C 82.0°F27.8°C - Calm Calm -- 30.09 in1019.0 mb 0.00 in0.0 mm 0.00 in0.0 mm 0.00 in0.0 mm
06:44 AM 54.7°F12.6°C 82.0°F27.8°C - Calm Calm -- 30.10 in1019.3 mb 0.00 in0.0 mm 0.00 in0.0 mm 0.00 in0.0 mm
06:49 AM 54.7°F12.6°C 82.0°F27.8°C - Calm Calm -- 30.10 in1019.3 mb 0.00 in0.0 mm 0.00 in0.0 mm 0.00 in0.0 mm
06:54 AM 54.7°F12.6°C 82.0°F27.8°C - Calm Calm -- 30.10 in1019.3 mb 0.00 in0.0 mm 0.00 in0.0 mm 0.00 in0.0 mm
06:59 AM 54.7°F12.6°C 81.9°F27.7°C - Calm Calm -- 30.10 in1019.3 mb 0.00 in0.0 mm 0.00 in0.0 mm 0.00 in0.0 mm
07:04 AM 54.6°F12.6°C 81.9°F27.7°C - Calm Calm -- 30.11 in1019.6 mb 0.00 in0.0 mm 0.00 in0.0 mm 0.00 in0.0 mm
07:09 AM 54.5°F12.5°C 81.7°F27.6°C - Calm Calm -- 30.11 in1019.6 mb 0.00 in0.0 mm 0.00 in0.0 mm 0.00 in0.0 mm
07:14 AM 54.4°F12.4°C 81.6°F27.6°C - Calm Calm -- 30.11 in1019.6 mb 0.00 in0.0 mm 0.00 in0.0 mm 0.00 in0.0 mm
07:19 AM 54.2°F12.3°C 81.3°F27.4°C - Calm Calm -- 30.12 in1020.0 mb 0.00 in0.0 mm 0.00 in0.0 mm 0.00 in0.0 mm
07:24 AM 54.2°F12.3°C 81.3°F27.4°C - Calm Calm -- 30.12 in1020.0 mb 0.00 in0.0 mm 0.00 in0.0 mm 0.00 in0.0 mm
07:29 AM 54.1°F12.3°C 81.3°F27.4°C - Calm Calm -- 30.12 in1020.0 mb 0.00 in0.0 mm 0.00 in0.0 mm 0.00 in0.0 mm
07:34 AM 54.0°F12.2°C 81.2°F27.3°C - Calm Calm -- 30.12 in1020.0 mb 0.00 in0.0 mm 0.00 in0.0 mm 0.00 in0.0 mm
07:39 AM 53.8°F12.1°C 81.0°F27.2°C - Calm Calm -- 30.13 in1020.3 mb 0.00 in0.0 mm 0.00 in0.0 mm 0.00 in0.0 mm
07:44 AM 53.7°F12.1°C 80.8°F27.1°C - Calm Calm -- 30.13 in1020.3 mb 0.00 in0.0 mm 0.00 in0.0 mm 0.00 in0.0 mm
07:49 AM 53.6°F12.0°C 80.7°F27.1°C - Calm Calm -- 30.13 in1020.3 mb 0.00 in0.0 mm 0.00 in0.0 mm 0.00 in0.0 mm
07:54 AM 53.6°F12.0°C 80.6°F27.0°C - Calm Calm -- 30.14 in1020.7 mb 0.00 in0.0 mm 0.00 in0.0 mm 0.00 in0.0 mm
07:59 AM 53.5°F11.9°C 80.5°F26.9°C - Calm Calm -- 30.14 in1020.7 mb 0.00 in0.0 mm 0.00 in0.0 mm 0.00 in0.0 mm
08:04 AM 53.5°F11.9°C 80.6°F27.0°C - Calm Calm -- 30.14 in1020.7 mb 0.00 in0.0 mm 0.00 in0.0 mm 0.00 in0.0 mm
08:09 AM 53.5°F11.9°C 80.6°F27.0°C - Calm Calm -- 30.15 in1021.0 mb 0.00 in0.0 mm 0.00 in0.0 mm 0.00 in0.0 mm
08:14 AM 53.7°F12.1°C 80.8°F27.1°C - Calm Calm -- 30.15 in1021.0 mb 0.00 in0.0 mm 0.00 in0.0 mm 0.00 in0.0 mm
08:19 AM 53.6°F12.0°C 80.7°F27.1°C - Calm Calm -- 30.15 in1021.0 mb 0.00 in0.0 mm 0.00 in0.0 mm 0.00 in0.0 mm
08:24 AM 53.5°F11.9°C 80.6°F27.0°C - Calm Calm -- 30.16 in1021.3 mb 0.00 in0.0 mm 0.00 in0.0 mm 0.00 in0.0 mm
08:29 AM 53.2°F11.8°C 80.3°F26.8°C - Calm Calm -- 30.16 in1021.3 mb 0.00 in0.0 mm 0.00 in0.0 mm 0.00 in0.0 mm
08:34 AM 53.2°F11.8°C 80.3°F26.8°C - Calm Calm -- 30.16 in1021.3 mb 0.00 in0.0 mm 0.00 in0.0 mm 0.00 in0.0 mm
08:39 AM 53.0°F11.7°C 80.1°F26.7°C - Calm Calm 0.3 mph0.5 kmh 30.16 in1021.3 mb 0.00 in0.0 mm 0.00 in0.0 mm 0.00 in0.0 mm
08:44 AM 52.7°F11.5°C 79.7°F26.5°C - Calm Calm -- 30.17 in1021.7 mb 0.00 in0.0 mm 0.00 in0.0 mm 0.00 in0.0 mm
08:49 AM 52.5°F11.4°C 79.5°F26.4°C - Calm Calm -- 30.17 in1021.7 mb 0.00 in0.0 mm 0.00 in0.0 mm 0.00 in0.0 mm
08:54 AM 52.3°F11.3°C 79.2°F26.2°C - Calm Calm -- 30.18 in1022.0 mb 0.00 in0.0 mm 0.00 in0.0 mm 0.00 in0.0 mm
08:59 AM 52.3°F11.3°C 79.3°F26.3°C - Calm Calm -- 30.18 in1022.0 mb 0.00 in0.0 mm 0.00 in0.0 mm 0.00 in0.0 mm
09:04 AM 52.5°F11.4°C 79.5°F26.4°C - Calm Calm -- 30.18 in1022.0 mb 0.00 in0.0 mm 0.00 in0.0 mm 0.00 in0.0 mm
09:09 AM 52.5°F11.4°C 79.5°F26.4°C - Calm Calm -- 30.18 in1022.0 mb 0.00 in0.0 mm 0.00 in0.0 mm 0.00 in0.0 mm
09:14 AM 52.5°F11.4°C 79.5°F26.4°C - Calm Calm -- 30.19 in1022.4 mb 0.00 in0.0 mm 0.00 in0.0 mm 0.00 in0.0 mm
09:19 AM 52.5°F11.4°C 79.5°F26.4°C - Calm Calm -- 30.19 in1022.4 mb 0.00 in0.0 mm 0.00 in0.0 mm 0.00 in0.0 mm
09:24 AM 52.6°F11.4°C 79.6°F26.4°C - Calm Calm -- 30.19 in1022.4 mb 0.00 in0.0 mm 0.00 in0.0 mm 0.00 in0.0 mm
09:29 AM 52.6°F11.4°C 79.5°F26.4°C - Calm Calm -- 30.19 in1022.4 mb 0.00 in0.0 mm 0.00 in0.0 mm 0.00 in0.0 mm
09:34 AM 52.7°F11.5°C 79.6°F26.4°C - Calm Calm -- 30.19 in1022.4 mb 0.00 in0.0 mm 0.00 in0.0 mm 0.00 in0.0 mm
09:39 AM 52.8°F11.6°C 79.8°F26.6°C - Calm Calm -- 30.19 in1022.4 mb 0.00 in0.0 mm 0.00 in0.0 mm 0.00 in0.0 mm
09:44 AM 53.1°F11.7°C 80.2°F26.8°C - Calm Calm -- 30.20 in1022.7 mb 0.00 in0.0 mm 0.00 in0.0 mm 0.00 in0.0 mm
09:49 AM 53.4°F11.9°C 80.5°F26.9°C - Calm Calm -- 30.20 in1022.7 mb 0.00 in0.0 mm 0.00 in0.0 mm 0.00 in0.0 mm
09:54 AM 53.6°F12.0°C 80.7°F27.1°C - Calm Calm -- 30.20 in1022.7 mb 0.00 in0.0 mm 0.00 in0.0 mm 0.00 in0.0 mm
09:59 AM 53.5°F11.9°C 80.6°F27.0°C - 0.1 mph SSW0.2 kmh SSW 2.0 mph3.2 kmh 30.20 in1022.7 mb 0.00 in0.0 mm 0.00 in0.0 mm 0.00 in0.0 mm
10:04 AM 53.5°F11.9°C 80.6°F27.0°C - Calm Calm -- 30.20 in1022.7 mb 0.00 in0.0 mm 0.00 in0.0 mm 0.00 in0.0 mm
10:09 AM 53.5°F11.9°C 80.5°F26.9°C - 3.1 mph SW5.0 kmh SW 6.3 mph10.1 kmh 30.20 in1022.7 mb 0.00 in0.0 mm 0.00 in0.0 mm 0.00 in0.0 mm
10:14 AM 53.6°F12.0°C 80.7°F27.1°C - 5.3 mph SSW8.5 kmh SSW 9.9 mph15.9 kmh 30.21 in1023.0 mb 0.00 in0.0 mm 0.00 in0.0 mm 0.00 in0.0 mm
10:19 AM 53.7°F12.1°C 80.8°F27.1°C - 3.2 mph SSW5.1 kmh SSW 5.6 mph9.0 kmh 30.21 in1023.0 mb 0.00 in0.0 mm 0.00 in0.0 mm 0.00 in0.0 mm
10:24 AM 53.7°F12.1°C 80.8°F27.1°C - 5.3 mph SSW8.5 kmh SSW 6.9 mph11.1 kmh 30.21 in1023.0 mb 0.00 in0.0 mm 0.00 in0.0 mm 0.00 in0.0 mm
10:29 AM 54.0°F12.2°C 81.1°F27.3°C - 4.1 mph SSW6.6 kmh SSW 5.8 mph9.3 kmh 30.21 in1023.0 mb 0.00 in0.0 mm 0.00 in0.0 mm 0.00 in0.0 mm
10:34 AM 54.1°F12.3°C 81.2°F27.3°C - 2.5 mph SSW4.0 kmh SSW 4.0 mph6.4 kmh 30.21 in1023.0 mb 0.00 in0.0 mm 0.00 in0.0 mm 0.00 in0.0 mm
10:39 AM 54.2°F12.3°C 81.4°F27.4°C - 5.1 mph SSW8.2 kmh SSW 7.2 mph11.6 kmh 30.21 in1023.0 mb 0.00 in0.0 mm 0.00 in0.0 mm 0.00 in0.0 mm
10:44 AM 54.4°F12.4°C 81.6°F27.6°C - 6.5 mph SSW10.5 kmh SSW 9.1 mph14.6 kmh 30.21 in1023.0 mb 0.00 in0.0 mm 0.00 in0.0 mm 0.00 in0.0 mm
10:49 AM 54.3°F12.4°C 81.4°F27.4°C - 5.8 mph SSW9.3 kmh SSW 7.6 mph12.2 kmh 30.22 in1023.4 mb 0.00 in0.0 mm 0.00 in0.0 mm 0.00 in0.0 mm
10:54 AM 54.4°F12.4°C 81.6°F27.6°C - 5.5 mph S8.9 kmh S 8.1 mph13.0 kmh 30.22 in1023.4 mb 0.00 in0.0 mm 0.00 in0.0 mm 0.00 in0.0 mm
10:59 AM 54.4°F12.4°C 81.6°F27.6°C - 6.4 mph S10.3 kmh S 8.4 mph13.5 kmh 30.22 in1023.4 mb 0.00 in0.0 mm 0.00 in0.0 mm 0.00 in0.0 mm
11:04 AM 54.4°F12.4°C 81.6°F27.6°C - 8.5 mph S13.7 kmh S 11.5 mph18.5 kmh 30.22 in1023.4 mb 0.00 in0.0 mm 0.00 in0.0 mm 0.00 in0.0 mm
11:09 AM 54.2°F12.3°C 81.4°F27.4°C - 8.7 mph S14.0 kmh S 12.5 mph20.1 kmh 30.22 in1023.4 mb 0.00 in0.0 mm 0.00 in0.0 mm 0.00 in0.0 mm
11:14 AM 54.1°F12.3°C 81.3°F27.4°C - 7.6 mph S12.2 kmh S 11.2 mph18.0 kmh 30.23 in1023.7 mb 0.00 in0.0 mm 0.00 in0.0 mm 0.00 in0.0 mm
11:19 AM 54.2°F12.3°C 81.4°F27.4°C - 9.0 mph S14.5 kmh S 13.2 mph21.2 kmh 30.23 in1023.7 mb 0.00 in0.0 mm 0.00 in0.0 mm 0.00 in0.0 mm
11:24 AM 54.2°F12.3°C 81.4°F27.4°C - 8.3 mph SSW13.4 kmh SSW 11.5 mph18.5 kmh 30.23 in1023.7 mb 0.00 in0.0 mm 0.00 in0.0 mm 0.00 in0.0 mm
11:29 AM 54.4°F12.4°C 81.6°F27.6°C - 7.2 mph S11.6 kmh S 11.1 mph17.9 kmh 30.23 in1023.7 mb 0.00 in0.0 mm 0.00 in0.0 mm 0.00 in0.0 mm
11:34 AM 54.5°F12.5°C 81.7°F27.6°C - 7.4 mph SSW11.9 kmh SSW 10.9 mph17.5 kmh 30.23 in1023.7 mb 0.00 in0.0 mm 0.00 in0.0 mm 0.00 in0.0 mm
11:39 AM 54.5°F12.5°C 81.7°F27.6°C - 7.1 mph SSW11.4 kmh SSW 11.2 mph18.0 kmh 30.23 in1023.7 mb 0.00 in0.0 mm 0.00 in0.0 mm 0.00 in0.0 mm
11:44 AM 54.6°F12.6°C 81.9°F27.7°C - 7.6 mph SSW12.2 kmh SSW 11.1 mph17.9 kmh 30.23 in1023.7 mb 0.00 in0.0 mm 0.00 in0.0 mm 0.00 in0.0 mm
11:49 AM 54.9°F12.7°C 82.2°F27.9°C - 6.8 mph SSW10.9 kmh SSW 9.7 mph15.6 kmh 30.23 in1023.7 mb 0.00 in0.0 mm 0.00 in0.0 mm 0.00 in0.0 mm
11:54 AM 55.0°F12.8°C 82.3°F27.9°C - 9.6 mph SSW15.4 kmh SSW 12.9 mph20.8 kmh 30.24 in1024.0 mb 0.00 in0.0 mm 0.00 in0.0 mm 0.00 in0.0 mm
11:59 AM 55.0°F12.8°C 82.3°F27.9°C - 7.0 mph SSW11.3 kmh SSW 10.9 mph17.5 kmh 30.24 in1024.0 mb 0.00 in0.0 mm 0.00 in0.0 mm 0.00 in0.0 mm
12:04 PM 55.1°F12.8°C 82.3°F27.9°C - 8.1 mph SSW13.0 kmh SSW 11.8 mph19.0 kmh 30.24 in1024.0 mb 0.00 in0.0 mm 0.00 in0.0 mm 0.00 in0.0 mm
12:09 PM 55.1°F12.8°C 82.4°F28.0°C - 8.2 mph SSW13.2 kmh SSW 11.7 mph18.8 kmh 30.24 in1024.0 mb 0.00 in0.0 mm 0.00 in0.0 mm 0.00 in0.0 mm
12:14 PM 55.1°F12.8°C 82.4°F28.0°C - 6.5 mph SW10.5 kmh SW 9.7 mph15.6 kmh 30.24 in1024.0 mb 0.00 in0.0 mm 0.00 in0.0 mm 0.00 in0.0 mm
12:19 PM 55.1°F12.8°C 82.3°F27.9°C - 10.1 mph SW16.3 kmh SW 14.6 mph23.5 kmh 30.24 in1024.0 mb 0.00 in0.0 mm 0.00 in0.0 mm 0.00 in0.0 mm
12:24 PM 55.0°F12.8°C 82.2°F27.9°C - 11.7 mph SSW18.8 kmh SSW 14.2 mph22.9 kmh 30.24 in1024.0 mb 0.00 in0.0 mm 0.00 in0.0 mm 0.00 in0.0 mm
12:29 PM 55.0°F12.8°C 82.3°F27.9°C - 9.5 mph SSW15.3 kmh SSW 13.4 mph21.6 kmh 30.24 in1024.0 mb 0.00 in0.0 mm 0.00 in0.0 mm 0.00 in0.0 mm
12:34 PM 55.1°F12.8°C 82.3°F27.9°C - 8.5 mph SW13.7 kmh SW 12.9 mph20.8 kmh 30.24 in1024.0 mb 0.00 in0.0 mm 0.00 in0.0 mm 0.00 in0.0 mm
12:39 PM 55.2°F12.9°C 82.5°F28.1°C - 11.4 mph SW18.3 kmh SW 21.7 mph34.9 kmh 30.24 in1024.0 mb 0.00 in0.0 mm 0.00 in0.0 mm 0.00 in0.0 mm
12:44 PM 55.2°F12.9°C 82.5°F28.1°C - 8.3 mph SSW13.4 kmh SSW 12.2 mph19.6 kmh 30.24 in1024.0 mb 0.00 in0.0 mm 0.00 in0.0 mm 0.00 in0.0 mm
12:49 PM 55.4°F13.0°C 82.8°F28.2°C - 6.2 mph S10.0 kmh S 8.6 mph13.8 kmh 30.24 in1024.0 mb 0.00 in0.0 mm 0.00 in0.0 mm 0.00 in0.0 mm
12:54 PM 55.5°F13.1°C 82.9°F28.3°C - 7.2 mph SSW11.6 kmh SSW 12.9 mph20.8 kmh 30.24 in1024.0 mb 0.00 in0.0 mm 0.00 in0.0 mm 0.00 in0.0 mm
12:59 PM 55.6°F13.1°C 83.0°F28.3°C - 8.8 mph SSW14.2 kmh SSW 12.4 mph20.0 kmh 30.24 in1024.0 mb 0.00 in0.0 mm 0.00 in0.0 mm 0.00 in0.0 mm
01:04 PM 55.5°F13.1°C 82.9°F28.3°C - 8.5 mph S13.7 kmh S 11.9 mph19.2 kmh 30.24 in1024.0 mb 0.00 in0.0 mm 0.00 in0.0 mm 0.00 in0.0 mm
01:09 PM 55.3°F12.9°C 82.6°F28.1°C - 8.7 mph S14.0 kmh S 11.9 mph19.2 kmh 30.24 in1024.0 mb 0.00 in0.0 mm 0.00 in0.0 mm 0.00 in0.0 mm
01:14 PM 55.2°F12.9°C 82.5°F28.1°C - 7.7 mph SSW12.4 kmh SSW 10.5 mph16.9 kmh 30.24 in1024.0 mb 0.00 in0.0 mm 0.00 in0.0 mm 0.00 in0.0 mm
01:19 PM 55.4°F13.0°C 82.8°F28.2°C - 9.0 mph SSW14.5 kmh SSW 12.4 mph20.0 kmh 30.24 in1024.0 mb 0.00 in0.0 mm 0.00 in0.0 mm 0.00 in0.0 mm
01:24 PM 55.4°F13.0°C 82.8°F28.2°C - 7.8 mph SSW12.6 kmh SSW 11.1 mph17.9 kmh 30.24 in1024.0 mb 0.00 in0.0 mm 0.00 in0.0 mm 0.00 in0.0 mm
01:29 PM 55.5°F13.1°C 82.9°F28.3°C - 7.9 mph S12.7 kmh S 11.4 mph18.3 kmh 30.24 in1024.0 mb 0.00 in0.0 mm 0.00 in0.0 mm 0.00 in0.0 mm
01:34 PM 55.6°F13.1°C 82.9°F28.3°C - 7.3 mph S11.7 kmh S 11.0 mph17.7 kmh 30.24 in1024.0 mb 0.00 in0.0 mm 0.00 in0.0 mm 0.00 in0.0 mm
01:39 PM 55.7°F13.2°C 83.1°F28.4°C - 9.0 mph SSW14.5 kmh SSW 12.4 mph20.0 kmh 30.24 in1024.0 mb 0.00 in0.0 mm 0.00 in0.0 mm 0.00 in0.0 mm
01:44 PM 55.6°F13.1°C 83.0°F28.3°C - 7.9 mph S12.7 kmh S 12.3 mph19.8 kmh 30.24 in1024.0 mb 0.00 in0.0 mm 0.00 in0.0 mm 0.00 in0.0 mm
01:49 PM 55.5°F13.1°C 82.9°F28.3°C - 9.1 mph SSW14.6 kmh SSW 12.4 mph20.0 kmh 30.24 in1024.0 mb 0.00 in0.0 mm 0.00 in0.0 mm 0.00 in0.0 mm
01:54 PM 55.5°F13.1°C 82.9°F28.3°C - 8.2 mph SSW13.2 kmh SSW 11.8 mph19.0 kmh 30.24 in1024.0 mb 0.00 in0.0 mm 0.00 in0.0 mm 0.00 in0.0 mm
01:59 PM 55.5°F13.1°C 82.9°F28.3°C - 9.1 mph S14.6 kmh S 12.6 mph20.3 kmh 30.24 in1024.0 mb 0.00 in0.0 mm 0.00 in0.0 mm 0.00 in0.0 mm
02:04 PM 55.4°F13.0°C 82.8°F28.2°C - 8.9 mph S14.3 kmh S 12.7 mph20.4 kmh 30.24 in1024.0 mb 0.00 in0.0 mm 0.00 in0.0 mm 0.00 in0.0 mm
02:09 PM 55.2°F12.9°C 82.5°F28.1°C - 10.1 mph SSW16.3 kmh SSW 13.2 mph21.2 kmh 30.24 in1024.0 mb 0.00 in0.0 mm 0.00 in0.0 mm 0.00 in0.0 mm
02:14 PM 55.4°F13.0°C 82.8°F28.2°C - 8.0 mph SSW12.9 kmh SSW 11.4 mph18.3 kmh 30.24 in1024.0 mb 0.00 in0.0 mm 0.00 in0.0 mm 0.00 in0.0 mm
02:19 PM 55.5°F13.1°C 82.9°F28.3°C - 8.2 mph SSW13.2 kmh SSW 11.2 mph18.0 kmh 30.24 in1024.0 mb 0.00 in0.0 mm 0.00 in0.0 mm 0.00 in0.0 mm
02:24 PM 55.5°F13.1°C 82.9°F28.3°C - 8.0 mph S12.9 kmh S 11.9 mph19.2 kmh 30.24 in1024.0 mb 0.00 in0.0 mm 0.00 in0.0 mm 0.00 in0.0 mm
02:29 PM 55.6°F13.1°C 82.9°F28.3°C - 8.5 mph S13.7 kmh S 12.0 mph19.3 kmh 30.24 in1024.0 mb 0.00 in0.0 mm 0.00 in0.0 mm 0.00 in0.0 mm
02:34 PM 55.6°F13.1°C 83.0°F28.3°C - 8.5 mph SSW13.7 kmh SSW 12.1 mph19.5 kmh 30.24 in1024.0 mb 0.00 in0.0 mm 0.00 in0.0 mm 0.00 in0.0 mm
02:39 PM 55.6°F13.1°C 83.0°F28.3°C - 9.0 mph SSW14.5 kmh SSW 12.6 mph20.3 kmh 30.24 in1024.0 mb 0.00 in0.0 mm 0.00 in0.0 mm 0.00 in0.0 mm
02:44 PM 55.6°F13.1°C 83.0°F28.3°C - 8.3 mph S13.4 kmh S 11.3 mph18.2 kmh 30.24 in1024.0 mb 0.00 in0.0 mm 0.00 in0.0 mm 0.00 in0.0 mm
02:49 PM 55.7°F13.2°C 83.1°F28.4°C - 8.2 mph SSW13.2 kmh SSW 12.0 mph19.3 kmh 30.24 in1024.0 mb 0.00 in0.0 mm 0.00 in0.0 mm 0.00 in0.0 mm
02:54 PM 55.7°F13.2°C 83.1°F28.4°C - 7.1 mph SSW11.4 kmh SSW 11.8 mph19.0 kmh 30.24 in1024.0 mb 0.00 in0.0 mm 0.00 in0.0 mm 0.00 in0.0 mm
02:59 PM 55.7°F13.2°C 83.1°F28.4°C - 9.7 mph SSW15.6 kmh SSW 11.3 mph18.2 kmh 30.23 in1023.7 mb 0.00 in0.0 mm 0.00 in0.0 mm 0.00 in0.0 mm
03:04 PM 55.7°F13.2°C 83.1°F28.4°C - 7.1 mph SSW11.4 kmh SSW 9.9 mph15.9 kmh 30.24 in1024.0 mb 0.00 in0.0 mm 0.00 in0.0 mm 0.00 in0.0 mm
03:09 PM 55.7°F13.2°C 83.1°F28.4°C - 5.5 mph S8.9 kmh S 8.1 mph13.0 kmh 30.24 in1024.0 mb 0.00 in0.0 mm 0.00 in0.0 mm 0.00 in0.0 mm
03:14 PM 56.0°F13.3°C 83.4°F28.6°C - 6.9 mph S11.1 kmh S 10.1 mph16.3 kmh 30.23 in1023.7 mb 0.00 in0.0 mm 0.00 in0.0 mm 0.00 in0.0 mm
03:19 PM 56.0°F13.3°C 83.4°F28.6°C - 7.3 mph SSW11.7 kmh SSW 10.9 mph17.5 kmh 30.23 in1023.7 mb 0.00 in0.0 mm 0.00 in0.0 mm 0.00 in0.0 mm
03:24 PM 56.0°F13.3°C 83.4°F28.6°C - 6.5 mph S10.5 kmh S 9.4 mph15.1 kmh 30.24 in1024.0 mb 0.00 in0.0 mm 0.00 in0.0 mm 0.00 in0.0 mm
03:29 PM 56.0°F13.3°C 83.4°F28.6°C - 6.4 mph S10.3 kmh S 8.7 mph14.0 kmh 30.24 in1024.0 mb 0.00 in0.0 mm 0.00 in0.0 mm 0.00 in0.0 mm
03:34 PM 55.9°F13.3°C 83.3°F28.5°C - 6.9 mph S11.1 kmh S 9.1 mph14.6 kmh 30.24 in1024.0 mb 0.00 in0.0 mm 0.00 in0.0 mm 0.00 in0.0 mm
03:39 PM 55.8°F13.2°C 83.2°F28.4°C - 6.0 mph SSW9.7 kmh SSW 8.9 mph14.3 kmh 30.24 in1024.0 mb 0.00 in0.0 mm 0.00 in0.0 mm 0.00 in0.0 mm
03:44 PM 55.8°F13.2°C 83.1°F28.4°C - 5.7 mph SSW9.2 kmh SSW 8.6 mph13.8 kmh 30.24 in1024.0 mb 0.00 in0.0 mm 0.00 in0.0 mm 0.00 in0.0 mm
03:49 PM 55.9°F13.3°C 83.3°F28.5°C - 6.1 mph SSW9.8 kmh SSW 8.9 mph14.3 kmh 30.23 in1023.7 mb 0.00 in0.0 mm 0.00 in0.0 mm 0.00 in0.0 mm
03:54 PM 55.9°F13.3°C 83.3°F28.5°C - 5.6 mph SSW9.0 kmh SSW 7.9 mph12.7 kmh 30.23 in1023.7 mb 0.00 in0.0 mm 0.00 in0.0 mm 0.00 in0.0 mm
03:59 PM 55.7°F13.2°C 83.0°F28.3°C - 5.0 mph SW8.0 kmh SW 7.0 mph11.3 kmh 30.23 in1023.7 mb 0.00 in0.0 mm 0.00 in0.0 mm 0.00 in0.0 mm
04:04 PM 55.7°F13.2°C 83.1°F28.4°C - 4.4 mph SSW7.1 kmh SSW 6.2 mph10.0 kmh 30.23 in1023.7 mb 0.00 in0.0 mm 0.00 in0.0 mm 0.00 in0.0 mm
04:09 PM 55.7°F13.2°C 83.1°F28.4°C - 4.2 mph SSW6.8 kmh SSW 6.0 mph9.7 kmh 30.23 in1023.7 mb 0.00 in0.0 mm 0.00 in0.0 mm 0.00 in0.0 mm
04:14 PM 55.7°F13.2°C 83.0°F28.3°C - 4.3 mph S6.9 kmh S 6.7 mph10.8 kmh 30.23 in1023.7 mb 0.00 in0.0 mm 0.00 in0.0 mm 0.00 in0.0 mm
04:19 PM 55.4°F13.0°C 82.8°F28.2°C - 5.1 mph S8.2 kmh S 6.7 mph10.8 kmh 30.23 in1023.7 mb 0.00 in0.0 mm 0.00 in0.0 mm 0.00 in0.0 mm
04:24 PM 55.1°F12.8°C 82.4°F28.0°C - 3.8 mph SSE6.1 kmh SSE 5.0 mph8.0 kmh 30.23 in1023.7 mb 0.00 in0.0 mm 0.00 in0.0 mm 0.00 in0.0 mm
04:29 PM 54.9°F12.7°C 82.2°F27.9°C - 3.5 mph S5.6 kmh S 4.6 mph7.4 kmh 30.23 in1023.7 mb 0.00 in0.0 mm 0.00 in0.0 mm 0.00 in0.0 mm
04:34 PM 54.5°F12.5°C 81.7°F27.6°C - 3.7 mph S6.0 kmh S 4.6 mph7.4 kmh 30.23 in1023.7 mb 0.00 in0.0 mm 0.00 in0.0 mm 0.00 in0.0 mm
04:39 PM 54.2°F12.3°C 81.4°F27.4°C - 3.9 mph S6.3 kmh S 5.1 mph8.2 kmh 30.23 in1023.7 mb 0.00 in0.0 mm 0.00 in0.0 mm 0.00 in0.0 mm
04:44 PM 53.7°F12.1°C 80.8°F27.1°C - 3.5 mph S5.6 kmh S 4.6 mph7.4 kmh 30.23 in1023.7 mb 0.00 in0.0 mm 0.00 in0.0 mm 0.00 in0.0 mm
04:49 PM 53.4°F11.9°C 80.5°F26.9°C - 4.4 mph SSE7.1 kmh SSE 5.4 mph8.7 kmh 30.23 in1023.7 mb 0.00 in0.0 mm 0.00 in0.0 mm 0.00 in0.0 mm
04:54 PM 53.1°F11.7°C 80.2°F26.8°C - 4.0 mph SSE6.4 kmh SSE 5.4 mph8.7 kmh 30.23 in1023.7 mb 0.00 in0.0 mm 0.00 in0.0 mm 0.00 in0.0 mm
04:59 PM 52.6°F11.4°C 79.5°F26.4°C - 3.6 mph SSE5.8 kmh SSE 4.7 mph7.6 kmh 30.23 in1023.7 mb 0.00 in0.0 mm 0.00 in0.0 mm 0.00 in0.0 mm
05:04 PM 52.3°F11.3°C 79.3°F26.3°C - 3.1 mph S5.0 kmh S 4.9 mph7.9 kmh 30.23 in1023.7 mb 0.00 in0.0 mm 0.00 in0.0 mm 0.00 in0.0 mm
05:09 PM 52.1°F11.2°C 78.9°F26.1°C - 3.9 mph S6.3 kmh S 5.0 mph8.0 kmh 30.23 in1023.7 mb 0.00 in0.0 mm 0.00 in0.0 mm 0.00 in0.0 mm
05:14 PM 51.8°F11.0°C 78.7°F25.9°C - 3.2 mph SSE5.1 kmh SSE 4.2 mph6.8 kmh 30.23 in1023.7 mb 0.00 in0.0 mm 0.00 in0.0 mm 0.00 in0.0 mm
05:19 PM 51.7°F10.9°C 78.5°F25.8°C - 3.4 mph SSE5.5 kmh SSE 4.8 mph7.7 kmh 30.23 in1023.7 mb 0.00 in0.0 mm 0.00 in0.0 mm 0.00 in0.0 mm
05:24 PM 51.5°F10.8°C 78.4°F25.8°C - 4.1 mph S6.6 kmh S 4.9 mph7.9 kmh 30.23 in1023.7 mb 0.00 in0.0 mm 0.00 in0.0 mm 0.00 in0.0 mm
05:29 PM 51.3°F10.7°C 78.2°F25.7°C - 3.3 mph SSE5.3 kmh SSE 4.5 mph7.2 kmh 30.23 in1023.7 mb 0.00 in0.0 mm 0.00 in0.0 mm 0.00 in0.0 mm
05:34 PM 51.2°F10.7°C 78.0°F25.6°C - 2.7 mph SSE4.3 kmh SSE 3.7 mph6.0 kmh 30.23 in1023.7 mb 0.00 in0.0 mm 0.00 in0.0 mm 0.00 in0.0 mm
05:39 PM 51.1°F10.6°C 77.9°F25.5°C - 3.3 mph SSE5.3 kmh SSE 4.2 mph6.8 kmh 30.23 in1023.7 mb 0.00 in0.0 mm 0.00 in0.0 mm 0.00 in0.0 mm
05:44 PM 50.9°F10.5°C 77.7°F25.4°C - 2.7 mph SSE4.3 kmh SSE 3.9 mph6.3 kmh 30.23 in1023.7 mb 0.00 in0.0 mm 0.00 in0.0 mm 0.00 in0.0 mm
05:49 PM 50.8°F10.4°C 77.6°F25.3°C - 2.9 mph SSE4.7 kmh SSE 4.0 mph6.4 kmh 30.23 in1023.7 mb 0.00 in0.0 mm 0.00 in0.0 mm 0.00 in0.0 mm
05:54 PM 50.7°F10.4°C 77.4°F25.2°C - 3.3 mph SSE5.3 kmh SSE 4.4 mph7.1 kmh 30.23 in1023.7 mb 0.00 in0.0 mm 0.00 in0.0 mm 0.00 in0.0 mm
05:59 PM 50.7°F10.4°C 77.5°F25.3°C - 3.0 mph SSE4.8 kmh SSE 4.6 mph7.4 kmh 30.23 in1023.7 mb 0.00 in0.0 mm 0.00 in0.0 mm 0.00 in0.0 mm
06:04 PM 50.7°F10.4°C 77.5°F25.3°C - 3.6 mph SSE5.8 kmh SSE 5.1 mph8.2 kmh 30.23 in1023.7 mb 0.00 in0.0 mm 0.00 in0.0 mm 0.00 in0.0 mm
06:09 PM 50.7°F10.4°C 77.5°F25.3°C - 3.8 mph SE6.1 kmh SE 5.2 mph8.4 kmh 30.23 in1023.7 mb 0.00 in0.0 mm 0.00 in0.0 mm 0.00 in0.0 mm
06:14 PM 50.7°F10.4°C 77.5°F25.3°C - 3.5 mph SSE5.6 kmh SSE 5.2 mph8.4 kmh 30.23 in1023.7 mb 0.00 in0.0 mm 0.00 in0.0 mm 0.00 in0.0 mm
06:19 PM 50.7°F10.4°C 77.5°F25.3°C - 4.1 mph SSE6.6 kmh SSE 5.8 mph9.3 kmh 30.23 in1023.7 mb 0.00 in0.0 mm 0.00 in0.0 mm 0.00 in0.0 mm
06:24 PM 50.7°F10.4°C 77.5°F25.3°C - 4.2 mph S6.8 kmh S 6.5 mph10.5 kmh 30.23 in1023.7 mb 0.00 in0.0 mm 0.00 in0.0 mm 0.00 in0.0 mm
06:29 PM 50.7°F10.4°C 77.5°F25.3°C - 4.0 mph S6.4 kmh S 5.3 mph8.5 kmh 30.23 in1023.7 mb 0.00 in0.0 mm 0.00 in0.0 mm 0.00 in0.0 mm
06:34 PM 50.7°F10.4°C 77.4°F25.2°C - 3.9 mph SSE6.3 kmh SSE 5.7 mph9.2 kmh 30.23 in1023.7 mb 0.00 in0.0 mm 0.00 in0.0 mm 0.00 in0.0 mm
06:39 PM 50.7°F10.4°C 77.4°F25.2°C - 3.5 mph SSE5.6 kmh SSE 4.9 mph7.9 kmh 30.23 in1023.7 mb 0.00 in0.0 mm 0.00 in0.0 mm 0.00 in0.0 mm
06:44 PM 50.7°F10.4°C 77.5°F25.3°C - 3.6 mph SSE5.8 kmh SSE 5.1 mph8.2 kmh 30.23 in1023.7 mb 0.00 in0.0 mm 0.00 in0.0 mm 0.00 in0.0 mm
06:49 PM 50.8°F10.4°C 77.6°F25.3°C - 5.1 mph SSE8.2 kmh SSE 6.9 mph11.1 kmh 30.23 in1023.7 mb 0.00 in0.0 mm 0.00 in0.0 mm 0.00 in0.0 mm
06:54 PM 50.8°F10.4°C 77.6°F25.3°C - 3.9 mph SSE6.3 kmh SSE 5.6 mph9.0 kmh 30.23 in1023.7 mb 0.00 in0.0 mm 0.00 in0.0 mm 0.00 in0.0 mm
06:59 PM 51.0°F10.6°C 77.8°F25.4°C - 4.1 mph SSE6.6 kmh SSE 6.3 mph10.1 kmh 30.23 in1023.7 mb 0.00 in0.0 mm 0.00 in0.0 mm 0.00 in0.0 mm
07:04 PM 51.1°F10.6°C 77.9°F25.5°C - 4.3 mph SE6.9 kmh SE 6.1 mph9.8 kmh 30.23 in1023.7 mb 0.00 in0.0 mm 0.00 in0.0 mm 0.00 in0.0 mm
07:09 PM 51.1°F10.6°C 77.9°F25.5°C - 4.8 mph SSE7.7 kmh SSE 7.2 mph11.6 kmh 30.23 in1023.7 mb 0.00 in0.0 mm 0.00 in0.0 mm 0.00 in0.0 mm
07:14 PM 51.1°F10.6°C 77.8°F25.4°C - 4.1 mph SSE6.6 kmh SSE 5.6 mph9.0 kmh 30.23 in1023.7 mb 0.00 in0.0 mm 0.00 in0.0 mm 0.00 in0.0 mm
07:19 PM 51.0°F10.6°C 77.7°F25.4°C - 4.4 mph SE7.1 kmh SE 6.1 mph9.8 kmh 30.23 in1023.7 mb 0.00 in0.0 mm 0.00 in0.0 mm 0.00 in0.0 mm
07:24 PM 51.0°F10.6°C 77.8°F25.4°C - 5.5 mph SE8.9 kmh SE 8.3 mph13.4 kmh 30.23 in1023.7 mb 0.00 in0.0 mm 0.00 in0.0 mm 0.00 in0.0 mm
07:29 PM 50.9°F10.5°C 77.7°F25.4°C - 6.7 mph SE10.8 kmh SE 11.6 mph18.7 kmh 30.23 in1023.7 mb 0.00 in0.0 mm 0.00 in0.0 mm 0.00 in0.0 mm
07:34 PM 50.8°F10.4°C 77.6°F25.3°C - 8.4 mph SSE13.5 kmh SSE 13.6 mph21.9 kmh 30.23 in1023.7 mb 0.00 in0.0 mm 0.00 in0.0 mm 0.00 in0.0 mm
07:39 PM 50.7°F10.4°C 77.5°F25.3°C - 8.0 mph SSE12.9 kmh SSE 13.9 mph22.4 kmh 30.23 in1023.7 mb 0.00 in0.0 mm 0.00 in0.0 mm 0.00 in0.0 mm
07:44 PM 50.7°F10.4°C 77.5°F25.3°C - 8.2 mph SSE13.2 kmh SSE 12.4 mph20.0 kmh 30.23 in1023.7 mb 0.00 in0.0 mm 0.00 in0.0 mm 0.00 in0.0 mm
07:49 PM 50.7°F10.4°C 77.5°F25.3°C - 9.6 mph SE15.4 kmh SE 13.7 mph22.0 kmh 30.23 in1023.7 mb 0.00 in0.0 mm 0.00 in0.0 mm 0.00 in0.0 mm
07:54 PM 50.7°F10.4°C 77.4°F25.2°C - 8.1 mph SE13.0 kmh SE 13.6 mph21.9 kmh 30.23 in1023.7 mb 0.00 in0.0 mm 0.00 in0.0 mm 0.00 in0.0 mm
07:59 PM 50.7°F10.4°C 77.5°F25.3°C - 8.0 mph SSE12.9 kmh SSE 12.2 mph19.6 kmh 30.23 in1023.7 mb 0.00 in0.0 mm 0.00 in0.0 mm 0.00 in0.0 mm
08:04 PM 50.7°F10.4°C 77.4°F25.2°C - 9.0 mph SSE14.5 kmh SSE 12.9 mph20.8 kmh 30.22 in1023.4 mb 0.00 in0.0 mm 0.00 in0.0 mm 0.00 in0.0 mm
08:09 PM 50.5°F10.3°C 77.3°F25.2°C - 9.4 mph SE15.1 kmh SE 14.9 mph24.0 kmh 30.22 in1023.4 mb 0.00 in0.0 mm 0.00 in0.0 mm 0.00 in0.0 mm
08:14 PM 50.5°F10.3°C 77.3°F25.2°C - 8.8 mph SSE14.2 kmh SSE 14.0 mph22.5 kmh 30.22 in1023.4 mb 0.00 in0.0 mm 0.00 in0.0 mm 0.00 in0.0 mm
08:19 PM 50.5°F10.3°C 77.3°F25.2°C - 5.2 mph SSE8.4 kmh SSE 8.5 mph13.7 kmh 30.22 in1023.4 mb 0.00 in0.0 mm 0.00 in0.0 mm 0.00 in0.0 mm
08:24 PM 50.4°F10.2°C 77.1°F25.1°C - 5.0 mph SSE8.0 kmh SSE 9.1 mph14.6 kmh 30.22 in1023.4 mb 0.00 in0.0 mm 0.00 in0.0 mm 0.00 in0.0 mm
08:29 PM 50.5°F10.3°C 77.3°F25.2°C - 3.7 mph S6.0 kmh S 6.8 mph10.9 kmh 30.22 in1023.4 mb 0.00 in0.0 mm 0.00 in0.0 mm 0.00 in0.0 mm
08:34 PM 50.3°F10.2°C 77.0°F25.0°C - 3.9 mph SSE6.3 kmh SSE 6.2 mph10.0 kmh 30.22 in1023.4 mb 0.00 in0.0 mm 0.00 in0.0 mm 0.00 in0.0 mm
08:39 PM 50.2°F10.1°C 76.9°F24.9°C - 5.3 mph SSE8.5 kmh SSE 8.8 mph14.2 kmh 30.22 in1023.4 mb 0.00 in0.0 mm 0.00 in0.0 mm 0.00 in0.0 mm
08:44 PM 50.2°F10.1°C 76.9°F24.9°C - 3.9 mph SE6.3 kmh SE 6.0 mph9.7 kmh 30.22 in1023.4 mb 0.00 in0.0 mm 0.00 in0.0 mm 0.00 in0.0 mm
08:49 PM 50.1°F10.1°C 76.7°F24.8°C - 3.0 mph SE4.8 kmh SE 4.4 mph7.1 kmh 30.22 in1023.4 mb 0.00 in0.0 mm 0.00 in0.0 mm 0.00 in0.0 mm
08:54 PM 49.8°F9.9°C 76.5°F24.7°C - 2.6 mph SSE4.2 kmh SSE 3.5 mph5.6 kmh 30.22 in1023.4 mb 0.00 in0.0 mm 0.00 in0.0 mm 0.00 in0.0 mm
08:59 PM 49.7°F9.8°C 76.4°F24.7°C - 2.4 mph SSE3.9 kmh SSE 3.6 mph5.8 kmh 30.22 in1023.4 mb 0.00 in0.0 mm 0.00 in0.0 mm 0.00 in0.0 mm
09:04 PM 49.5°F9.7°C 76.1°F24.5°C - 2.6 mph SE4.2 kmh SE 3.7 mph6.0 kmh 30.22 in1023.4 mb 0.00 in0.0 mm 0.00 in0.0 mm 0.00 in0.0 mm
09:09 PM 49.2°F9.6°C 75.8°F24.3°C - 2.4 mph SE3.9 kmh SE 3.2 mph5.1 kmh 30.22 in1023.4 mb 0.00 in0.0 mm 0.00 in0.0 mm 0.00 in0.0 mm
09:14 PM 49.1°F9.5°C 75.6°F24.2°C - 3.1 mph SE5.0 kmh SE 4.2 mph6.8 kmh 30.21 in1023.0 mb 0.00 in0.0 mm 0.00 in0.0 mm 0.00 in0.0 mm
09:19 PM 49.1°F9.5°C 75.7°F24.3°C - 3.0 mph SE4.8 kmh SE 4.0 mph6.4 kmh 30.21 in1023.0 mb 0.00 in0.0 mm 0.00 in0.0 mm 0.00 in0.0 mm
09:24 PM 49.1°F9.5°C 75.6°F24.2°C - 4.0 mph SE6.4 kmh SE 5.6 mph9.0 kmh 30.21 in1023.0 mb 0.00 in0.0 mm 0.00 in0.0 mm 0.00 in0.0 mm
09:29 PM 49.1°F9.5°C 75.7°F24.3°C - 3.3 mph SE5.3 kmh SE 4.6 mph7.4 kmh 30.21 in1023.0 mb 0.00 in0.0 mm 0.00 in0.0 mm 0.00 in0.0 mm
09:34 PM 49.1°F9.5°C 75.7°F24.3°C - 3.6 mph SE5.8 kmh SE 4.9 mph7.9 kmh 30.21 in1023.0 mb 0.00 in0.0 mm 0.00 in0.0 mm 0.00 in0.0 mm
09:39 PM 48.9°F9.4°C 75.5°F24.2°C - 3.1 mph SE5.0 kmh SE 4.2 mph6.8 kmh 30.21 in1023.0 mb 0.00 in0.0 mm 0.00 in0.0 mm 0.00 in0.0 mm
09:44 PM 48.7°F9.3°C 75.2°F24.0°C - 3.8 mph SE6.1 kmh SE 5.2 mph8.4 kmh 30.21 in1023.0 mb 0.00 in0.0 mm 0.00 in0.0 mm 0.00 in0.0 mm
09:49 PM 48.8°F9.3°C 75.2°F24.0°C - 4.1 mph SE6.6 kmh SE 5.9 mph9.5 kmh 30.21 in1023.0 mb 0.00 in0.0 mm 0.00 in0.0 mm 0.00 in0.0 mm
09:54 PM 48.8°F9.3°C 75.3°F24.1°C - 3.4 mph SE5.5 kmh SE 4.7 mph7.6 kmh 30.21 in1023.0 mb 0.00 in0.0 mm 0.00 in0.0 mm 0.00 in0.0 mm
09:59 PM 48.8°F9.3°C 75.2°F24.0°C - 3.3 mph ESE5.3 kmh ESE 4.6 mph7.4 kmh 30.21 in1023.0 mb 0.00 in0.0 mm 0.00 in0.0 mm 0.00 in0.0 mm
10:04 PM 48.8°F9.3°C 75.2°F24.0°C - 3.5 mph ESE5.6 kmh ESE 5.0 mph8.0 kmh 30.21 in1023.0 mb 0.00 in0.0 mm 0.00 in0.0 mm 0.00 in0.0 mm
10:09 PM 48.7°F9.3°C 75.2°F24.0°C - 3.2 mph SE5.1 kmh SE 4.5 mph7.2 kmh 30.20 in1022.7 mb 0.00 in0.0 mm 0.00 in0.0 mm 0.00 in0.0 mm
10:14 PM 48.6°F9.2°C 75.0°F23.9°C - 3.0 mph SE4.8 kmh SE 4.2 mph6.8 kmh 30.20 in1022.7 mb 0.00 in0.0 mm 0.00 in0.0 mm 0.00 in0.0 mm
10:19 PM 48.6°F9.2°C 75.1°F23.9°C - 4.0 mph ESE6.4 kmh ESE 5.3 mph8.5 kmh 30.20 in1022.7 mb 0.00 in0.0 mm 0.00 in0.0 mm 0.00 in0.0 mm
10:24 PM 48.7°F9.3°C 75.2°F24.0°C - 3.9 mph ESE6.3 kmh ESE 5.3 mph8.5 kmh 30.20 in1022.7 mb 0.00 in0.0 mm 0.00 in0.0 mm 0.00 in0.0 mm
10:29 PM 48.7°F9.3°C 75.2°F24.0°C - 3.2 mph SE5.1 kmh SE 4.7 mph7.6 kmh 30.20 in1022.7 mb 0.00 in0.0 mm 0.00 in0.0 mm 0.00 in0.0 mm
10:34 PM 48.7°F9.3°C 75.2°F24.0°C - 3.4 mph SE5.5 kmh SE 4.7 mph7.6 kmh 30.20 in1022.7 mb 0.00 in0.0 mm 0.00 in0.0 mm 0.00 in0.0 mm
10:39 PM 48.7°F9.3°C 75.2°F24.0°C - 3.0 mph ESE4.8 kmh ESE 4.8 mph7.7 kmh 30.20 in1022.7 mb 0.00 in0.0 mm 0.00 in0.0 mm 0.00 in0.0 mm
10:44 PM 48.7°F9.3°C 75.1°F23.9°C - 3.1 mph SE5.0 kmh SE 4.7 mph7.6 kmh 30.20 in1022.7 mb 0.00 in0.0 mm 0.00 in0.0 mm 0.00 in0.0 mm
10:49 PM 48.7°F9.3°C 75.2°F24.0°C - 3.1 mph ESE5.0 kmh ESE 4.2 mph6.8 kmh 30.20 in1022.7 mb 0.00 in0.0 mm 0.00 in0.0 mm 0.00 in0.0 mm
10:54 PM 48.6°F9.2°C 75.1°F23.9°C - 3.6 mph SE5.8 kmh SE 5.5 mph8.9 kmh 30.20 in1022.7 mb 0.00 in0.0 mm 0.00 in0.0 mm 0.00 in0.0 mm
10:59 PM 48.4°F9.1°C 74.9°F23.8°C - 3.6 mph ESE5.8 kmh ESE 4.9 mph7.9 kmh 30.20 in1022.7 mb 0.00 in0.0 mm 0.00 in0.0 mm 0.00 in0.0 mm
11:04 PM 48.2°F9.0°C 74.6°F23.7°C - 3.1 mph SE5.0 kmh SE 4.9 mph7.9 kmh 30.20 in1022.7 mb 0.00 in0.0 mm 0.00 in0.0 mm 0.00 in0.0 mm
11:09 PM 48.2°F9.0°C 74.7°F23.7°C - 3.5 mph SE5.6 kmh SE 5.6 mph9.0 kmh 30.20 in1022.7 mb 0.00 in0.0 mm 0.00 in0.0 mm 0.00 in0.0 mm
11:14 PM 48.2°F9.0°C 74.7°F23.7°C - 3.6 mph SE5.8 kmh SE 5.5 mph8.9 kmh 30.19 in1022.4 mb 0.00 in0.0 mm 0.00 in0.0 mm 0.00 in0.0 mm
11:19 PM 48.2°F9.0°C 74.7°F23.7°C - 3.5 mph SE5.6 kmh SE 5.0 mph8.0 kmh 30.19 in1022.4 mb 0.00 in0.0 mm 0.00 in0.0 mm 0.00 in0.0 mm
11:24 PM 48.2°F9.0°C 74.7°F23.7°C - 3.2 mph SE5.1 kmh SE 5.7 mph9.2 kmh 30.19 in1022.4 mb 0.00 in0.0 mm 0.00 in0.0 mm 0.00 in0.0 mm
11:29 PM 48.2°F9.0°C 74.6°F23.7°C - 2.9 mph SE4.7 kmh SE 4.4 mph7.1 kmh 30.19 in1022.4 mb 0.00 in0.0 mm 0.00 in0.0 mm 0.00 in0.0 mm
11:34 PM 48.4°F9.1°C 74.8°F23.8°C - 3.1 mph SE5.0 kmh SE 4.7 mph7.6 kmh 30.19 in1022.4 mb 0.00 in0.0 mm 0.00 in0.0 mm 0.00 in0.0 mm
11:39 PM 48.6°F9.2°C 75.1°F23.9°C - 3.7 mph ESE6.0 kmh ESE 5.8 mph9.3 kmh 30.18 in1022.0 mb 0.00 in0.0 mm 0.00 in0.0 mm 0.00 in0.0 mm
11:44 PM 48.6°F9.2°C 75.1°F23.9°C - 4.5 mph ESE7.2 kmh ESE 6.2 mph10.0 kmh 30.18 in1022.0 mb 0.00 in0.0 mm 0.00 in0.0 mm 0.00 in0.0 mm
11:49 PM 48.6°F9.2°C 75.1°F23.9°C - 4.7 mph ESE7.6 kmh ESE 7.4 mph11.9 kmh 30.18 in1022.0 mb 0.00 in0.0 mm 0.00 in0.0 mm 0.00 in0.0 mm
11:54 PM 48.7°F9.3°C 75.2°F24.0°C - 4.3 mph ESE6.9 kmh ESE 7.7 mph12.4 kmh 30.18 in1022.0 mb 0.00 in0.0 mm 0.00 in0.0 mm 0.00 in0.0 mm